createdAt,value
2018-06-27T00:00:06.629Z,99.90
2018-06-27T00:02:35.503Z,99.90
2018-06-27T00:05:04.682Z,99.90
2018-06-27T00:07:33.993Z,99.90
2018-06-27T00:10:03.285Z,99.90
2018-06-27T00:12:32.178Z,99.90
2018-06-27T00:15:01.103Z,99.90
2018-06-27T00:17:30.038Z,99.90
2018-06-27T00:19:59.563Z,99.90
2018-06-27T00:22:46.082Z,99.90
2018-06-27T00:25:14.859Z,99.90
2018-06-27T00:27:44.057Z,99.90
2018-06-27T00:30:13.581Z,99.90
2018-06-27T00:32:42.643Z,99.90
2018-06-27T00:35:11.421Z,99.90
2018-06-27T00:37:40.163Z,99.90
2018-06-27T00:40:08.917Z,99.90
2018-06-27T00:42:38.054Z,99.90
2018-06-27T00:45:07.533Z,99.90
2018-06-27T00:47:36.395Z,99.90
2018-06-27T00:50:05.804Z,99.90
2018-06-27T00:52:52.800Z,99.90
2018-06-27T00:55:21.626Z,99.90
2018-06-27T00:57:51.351Z,99.90
2018-06-27T01:00:20.268Z,99.90
2018-06-27T01:02:49.036Z,99.90
2018-06-27T01:05:17.973Z,99.90
2018-06-27T01:07:47.805Z,99.90
2018-06-27T01:10:16.570Z,99.90
2018-06-27T01:12:45.405Z,99.90
2018-06-27T01:15:14.915Z,99.90
2018-06-27T01:17:49.786Z,99.90
2018-06-27T01:20:18.738Z,99.90
2018-06-27T01:22:53.875Z,99.90
2018-06-27T01:25:23.249Z,99.90
2018-06-27T01:27:52.045Z,99.90
2018-06-27T01:30:20.794Z,99.90
2018-06-27T01:32:50.112Z,99.90
2018-06-27T01:35:19.503Z,99.90
2018-06-27T01:37:48.433Z,99.90
2018-06-27T01:40:17.263Z,99.90
2018-06-27T01:42:46.143Z,99.90
2018-06-27T01:45:15.218Z,99.90
2018-06-27T01:47:44.236Z,99.90
2018-06-27T01:50:13.157Z,99.90
2018-06-27T01:52:42.382Z,99.90
2018-06-27T01:55:11.234Z,99.90
2018-06-27T01:57:39.999Z,99.90
2018-06-27T02:00:09.609Z,99.90
2018-06-27T02:02:39.119Z,99.90
2018-06-27T02:05:07.961Z,99.90
2018-06-27T02:07:37.046Z,99.90
2018-06-27T02:10:05.925Z,99.90
2018-06-27T03:25:25.899Z,99.90
2018-06-27T03:28:00.416Z,99.90
2018-06-27T03:30:29.521Z,99.90
2018-06-27T03:32:58.353Z,99.90
2018-06-27T03:35:27.208Z,99.90
2018-06-27T03:37:56.340Z,99.90
2018-06-27T03:40:25.213Z,99.90
2018-06-27T03:42:54.112Z,99.90
2018-06-27T03:45:23.321Z,99.90
2018-06-27T03:47:52.462Z,99.90
2018-06-27T03:50:21.209Z,99.90
2018-06-27T03:52:50.333Z,99.90
2018-06-27T03:55:19.389Z,99.90
2018-06-27T03:57:48.258Z,99.90
2018-06-27T04:00:16.971Z,99.90
2018-06-27T04:02:45.768Z,99.90
2018-06-27T04:05:14.502Z,99.90
2018-06-27T04:07:43.555Z,99.90
2018-06-27T04:10:12.250Z,99.90
2018-06-27T04:12:41.410Z,99.90
2018-06-27T04:15:10.120Z,99.90
2018-06-27T04:17:39.072Z,99.90
2018-06-27T04:20:07.809Z,99.90
2018-06-27T04:22:36.725Z,99.90
2018-06-27T04:25:05.592Z,99.90
2018-06-27T04:27:34.245Z,99.90
2018-06-27T04:30:03.971Z,99.90
2018-06-27T04:32:32.701Z,99.90
2018-06-27T04:35:01.480Z,99.90
2018-06-27T04:37:30.153Z,99.90
2018-06-27T04:39:58.819Z,99.90
2018-06-27T04:42:28.755Z,99.90
2018-06-27T04:44:57.608Z,99.90
2018-06-27T04:47:26.222Z,99.90
2018-06-27T04:49:55.770Z,99.90
2018-06-27T04:52:24.588Z,99.90
2018-06-27T04:54:53.621Z,99.90
2018-06-27T04:57:22.229Z,99.90
2018-06-27T04:59:51.090Z,99.90
2018-06-27T05:02:19.774Z,99.90
2018-06-27T05:04:48.337Z,99.90
2018-06-27T05:07:17.321Z,99.90
2018-06-27T05:09:46.240Z,99.90
2018-06-27T05:12:14.952Z,99.90
2018-06-27T05:14:43.689Z,99.90
2018-06-27T05:17:12.327Z,99.90
2018-06-27T05:19:43.152Z,99.90
2018-06-27T05:22:12.766Z,99.90
2018-06-27T05:24:41.659Z,99.90
2018-06-27T05:27:10.711Z,99.90
2018-06-27T05:29:39.435Z,99.90
2018-06-27T05:32:08.138Z,99.90
2018-06-27T05:34:36.918Z,99.90
2018-06-27T05:37:05.585Z,99.90
2018-06-27T05:39:34.269Z,99.90
2018-06-27T05:42:03.177Z,99.90
2018-06-27T05:44:31.820Z,99.90
2018-06-27T05:47:00.689Z,99.90
2018-06-27T05:49:29.426Z,99.90
2018-06-27T05:51:59.003Z,99.90
2018-06-27T05:54:27.969Z,99.90
2018-06-27T05:56:56.895Z,99.90
2018-06-27T05:59:25.767Z,99.90
2018-06-27T06:01:54.624Z,99.90
2018-06-27T06:04:23.382Z,99.90
2018-06-27T06:06:52.834Z,99.90
2018-06-27T06:09:21.583Z,99.90
2018-06-27T06:11:50.296Z,99.90
2018-06-27T06:14:18.967Z,99.90
2018-06-27T06:16:47.864Z,99.90
2018-06-27T06:19:16.659Z,99.90
2018-06-27T06:22:01.099Z,99.90
2018-06-27T06:26:59.124Z,99.90
2018-06-27T06:29:27.801Z,99.90
2018-06-27T06:31:56.505Z,99.90
2018-06-27T06:34:25.103Z,99.90
2018-06-27T06:36:53.937Z,99.90
2018-06-27T06:39:22.570Z,99.90
2018-06-27T06:41:53.174Z,99.90
2018-06-27T06:44:22.024Z,99.90
2018-06-27T06:46:51.053Z,99.90
2018-06-27T06:49:19.771Z,99.90
2018-06-27T06:51:48.845Z,99.90
2018-06-27T06:54:17.499Z,99.90
2018-06-27T06:56:46.111Z,99.90
2018-06-27T06:59:14.967Z,99.90
2018-06-27T07:01:43.770Z,99.90
2018-06-27T07:04:12.521Z,99.90
2018-06-27T07:06:41.053Z,99.90
2018-06-27T07:09:11.870Z,99.90
2018-06-27T07:11:40.754Z,99.90
2018-06-27T07:14:10.433Z,99.90
2018-06-27T07:16:39.675Z,99.90
2018-06-27T07:19:08.431Z,99.90
2018-06-27T07:21:37.684Z,99.90
2018-06-27T07:24:06.738Z,99.90
2018-06-27T07:26:35.474Z,99.90
2018-06-27T07:29:04.804Z,99.90
2018-06-27T07:31:33.694Z,99.90
2018-06-27T07:34:02.607Z,99.90
2018-06-27T07:36:31.393Z,99.90
2018-06-27T07:39:00.326Z,99.90
2018-06-27T07:41:28.935Z,99.90
2018-06-27T07:43:58.074Z,99.90
2018-06-27T07:46:26.845Z,99.90
2018-06-27T07:48:55.833Z,99.90
2018-06-27T07:51:24.510Z,99.90
2018-06-27T07:53:53.247Z,99.90
2018-06-27T07:56:22.122Z,99.90
2018-06-27T07:58:51.129Z,99.90
2018-06-27T08:01:19.758Z,99.90
2018-06-27T08:03:48.498Z,99.90
2018-06-27T08:06:17.291Z,99.90
2018-06-27T08:08:45.930Z,99.90
2018-06-27T08:11:14.594Z,99.90
2018-06-27T08:13:43.366Z,99.90
2018-06-27T08:16:12.083Z,99.90
2018-06-27T08:18:42.961Z,99.90
2018-06-27T08:21:12.062Z,99.90
2018-06-27T08:23:40.821Z,99.90
2018-06-27T08:26:09.622Z,99.90
2018-06-27T08:28:38.471Z,99.90
2018-06-27T08:31:07.347Z,99.90
2018-06-27T08:33:36.094Z,99.90
2018-06-27T08:36:04.875Z,99.90
2018-06-27T08:38:33.983Z,99.90
2018-06-27T08:41:02.751Z,99.90
2018-06-27T08:43:31.555Z,99.90
2018-06-27T08:46:00.311Z,99.90
2018-06-27T08:48:29.086Z,99.90
2018-06-27T08:50:59.499Z,99.90
2018-06-27T08:53:29.679Z,99.90
2018-06-27T08:55:58.633Z,99.90
2018-06-27T08:58:38.948Z,99.90
2018-06-27T09:01:08.026Z,99.90
2018-06-27T09:03:36.799Z,99.90
2018-06-27T09:06:05.619Z,99.90
2018-06-27T09:08:34.758Z,99.90
2018-06-27T09:11:03.654Z,99.90
2018-06-27T09:13:32.243Z,99.90
2018-06-27T09:16:00.941Z,99.90
2018-06-27T09:18:29.716Z,99.90
2018-06-27T09:20:58.594Z,99.90
2018-06-27T09:23:27.186Z,99.90
2018-06-27T09:25:55.739Z,99.90
2018-06-27T09:28:24.337Z,99.90
2018-06-27T09:30:52.880Z,99.90
2018-06-27T09:33:21.426Z,99.90
2018-06-27T09:35:50.218Z,99.90
2018-06-27T09:38:18.986Z,99.90
2018-06-27T09:40:47.494Z,99.90
2018-06-27T09:43:19.720Z,99.90
2018-06-27T09:45:49.126Z,99.90
2018-06-27T09:48:17.775Z,99.90
2018-06-27T09:50:46.579Z,99.90
2018-06-27T09:53:15.378Z,99.90
2018-06-27T09:55:44.058Z,99.90
2018-06-27T09:58:14.090Z,99.90
2018-06-27T10:00:42.890Z,99.90
2018-06-27T10:03:11.710Z,99.90
2018-06-27T10:05:40.298Z,99.90
2018-06-27T10:08:09.078Z,99.90
2018-06-27T10:10:37.622Z,99.90
2018-06-27T10:13:06.191Z,99.90
2018-06-27T10:15:34.876Z,99.90
2018-06-27T10:18:10.578Z,99.90
2018-06-27T10:20:39.103Z,99.90
2018-06-27T10:23:07.974Z,99.90
2018-06-27T10:25:36.737Z,99.90
2018-06-27T10:28:05.506Z,99.90
2018-06-27T10:30:34.232Z,99.90
2018-06-27T10:33:03.271Z,99.90
2018-06-27T10:35:31.962Z,99.90
2018-06-27T10:38:00.938Z,99.90
2018-06-27T10:40:29.792Z,99.90
2018-06-27T10:42:58.390Z,99.90
2018-06-27T10:45:47.099Z,99.90
2018-06-27T10:48:15.958Z,99.90
2018-06-27T10:50:45.653Z,99.90
2018-06-27T10:53:17.778Z,99.50
2018-06-27T10:55:46.618Z,99.00
2018-06-27T10:58:16.267Z,99.10
2018-06-27T11:00:44.967Z,99.90
2018-06-27T11:03:13.700Z,99.60
2018-06-27T11:05:42.581Z,98.70
2018-06-27T11:08:11.274Z,97.80
2018-06-27T11:10:40.166Z,97.40
2018-06-27T11:13:09.014Z,97.20
2018-06-27T11:15:38.501Z,97.00
2018-06-27T11:18:07.825Z,97.70
2018-06-27T11:20:39.051Z,97.20
2018-06-27T11:23:11.070Z,98.50
2018-06-27T11:25:39.785Z,97.40
2018-06-27T11:31:11.697Z,96.00
2018-06-27T11:33:40.450Z,96.10
2018-06-27T11:42:27.143Z,96.10
2018-06-27T11:44:55.882Z,96.40
2018-06-27T11:47:24.746Z,95.40
2018-06-27T11:49:53.888Z,93.70
2018-06-27T11:55:25.706Z,95.90
2018-06-27T12:01:03.898Z,93.60
2018-06-27T12:03:33.995Z,92.30
2018-06-27T12:06:02.736Z,92.70
2018-06-27T12:08:31.895Z,91.20
2018-06-27T12:11:16.580Z,90.10
2018-06-27T12:13:54.709Z,91.60
2018-06-27T12:22:28.768Z,90.90
2018-06-27T12:24:57.623Z,90.10
2018-06-27T12:27:26.337Z,90.20
2018-06-27T12:29:54.982Z,90.10
2018-06-27T12:32:23.640Z,90.00
2018-06-27T12:34:52.705Z,90.10
2018-06-27T12:37:21.740Z,90.00
2018-06-27T12:39:50.697Z,90.20
2018-06-27T12:42:19.474Z,90.00
2018-06-27T12:44:48.231Z,90.00
2018-06-27T12:47:17.399Z,87.50
2018-06-27T12:49:46.606Z,86.70
2018-06-27T12:52:15.441Z,87.30
2018-06-27T12:54:46.665Z,86.90
2018-06-27T12:57:15.524Z,85.00
2018-06-27T12:59:44.316Z,83.80
2018-06-27T13:02:13.324Z,86.60
2018-06-27T13:04:43.436Z,85.20
2018-06-27T13:07:19.692Z,84.70
2018-06-27T13:10:04.311Z,85.70
2018-06-27T13:12:33.642Z,83.00
2018-06-27T13:15:02.466Z,83.30
2018-06-27T13:17:32.488Z,81.90
2018-06-27T13:20:02.580Z,81.00
2018-06-27T13:22:37.294Z,82.10
2018-06-27T13:25:06.133Z,82.90
2018-06-27T13:27:34.762Z,79.10
2018-06-27T13:30:03.497Z,84.80
2018-06-27T13:32:32.224Z,80.30
2018-06-27T13:35:03.252Z,80.30
2018-06-27T13:37:32.385Z,82.80
2018-06-27T13:40:01.289Z,83.90
2018-06-27T13:42:30.418Z,86.00
2018-06-27T13:44:59.334Z,88.10
2018-06-27T13:47:35.596Z,90.10
2018-06-27T13:50:04.572Z,90.00
2018-06-27T13:52:33.814Z,90.20
2018-06-27T13:55:06.050Z,90.80
2018-06-27T13:57:35.081Z,91.60
2018-06-27T14:00:03.943Z,91.90
2018-06-27T14:02:32.814Z,92.20
2018-06-27T14:05:04.651Z,91.50
2018-06-27T14:07:33.403Z,92.10
2018-06-27T14:10:02.935Z,92.10
2018-06-27T14:12:31.548Z,92.20
2018-06-27T14:15:02.112Z,92.20
2018-06-27T14:17:30.880Z,92.90
2018-06-27T14:19:59.647Z,92.60
2018-06-27T14:22:28.530Z,92.50
2018-06-27T14:24:57.347Z,92.90
2018-06-27T14:27:26.419Z,93.20
2018-06-27T14:29:56.098Z,91.70
2018-06-27T14:32:24.905Z,91.80
2018-06-27T14:34:54.040Z,91.70
2018-06-27T14:37:22.877Z,91.80
2018-06-27T14:39:52.133Z,92.40
2018-06-27T14:42:20.843Z,92.10
2018-06-27T14:44:51.450Z,91.30
2018-06-27T14:47:20.252Z,90.70
2018-06-27T14:49:49.100Z,90.90
2018-06-27T14:52:18.133Z,90.30
2018-06-27T14:54:50.262Z,89.60
2018-06-27T14:57:19.437Z,88.80
2018-06-27T14:59:48.639Z,90.10
2018-06-27T15:02:17.554Z,88.50
2018-06-27T15:04:46.399Z,89.00
2018-06-27T15:07:15.389Z,87.70
2018-06-27T15:09:43.980Z,87.70
2018-06-27T15:12:33.300Z,87.30
2018-06-27T15:15:02.410Z,86.70
2018-06-27T15:17:31.231Z,88.30
2018-06-27T15:19:59.978Z,85.20
2018-06-27T15:22:28.934Z,86.80
2018-06-27T15:24:57.748Z,86.30
2018-06-27T15:27:26.505Z,86.70
2018-06-27T15:29:55.197Z,87.00
2018-06-27T15:32:23.854Z,85.80
2018-06-27T15:34:52.887Z,86.00
2018-06-27T15:37:21.438Z,87.80
2018-06-27T15:39:50.354Z,88.30
2018-06-27T15:42:18.979Z,87.50
2018-06-27T15:44:48.255Z,88.90
2018-06-27T15:47:16.796Z,90.50
2018-06-27T15:49:45.343Z,90.50
2018-06-27T15:52:14.251Z,89.40
2018-06-27T15:54:43.258Z,90.60
2018-06-27T16:00:03.690Z,91.00
2018-06-27T16:02:33.638Z,90.70
2018-06-27T16:05:02.439Z,90.00
2018-06-27T16:07:31.241Z,90.30
2018-06-27T16:10:00.360Z,90.50
2018-06-27T16:12:29.328Z,90.90
2018-06-27T16:14:58.180Z,91.80
2018-06-27T16:17:28.841Z,91.10
2018-06-27T16:19:57.522Z,90.40
2018-06-27T16:22:26.531Z,90.70
2018-06-27T16:24:55.014Z,90.10
2018-06-27T16:27:24.243Z,90.20
2018-06-27T16:29:52.971Z,90.60
2018-06-27T16:32:21.666Z,89.80
2018-06-27T16:34:50.369Z,89.30
2018-06-27T16:37:19.380Z,90.20
2018-06-27T16:39:48.454Z,90.50
2018-06-27T16:42:17.243Z,91.10
2018-06-27T16:44:45.928Z,90.90
2018-06-27T16:47:19.857Z,90.50
2018-06-27T16:49:48.558Z,90.40
2018-06-27T16:52:17.283Z,88.90
2018-06-27T16:54:45.981Z,88.50
2018-06-27T16:57:14.800Z,88.80
2018-06-27T16:59:43.447Z,90.10
2018-06-27T17:02:12.994Z,88.20
2018-06-27T17:04:41.551Z,88.70
2018-06-27T17:07:11.937Z,88.40
2018-06-27T17:09:40.761Z,87.60
2018-06-27T17:12:10.857Z,90.00
2018-06-27T17:14:39.439Z,89.30
2018-06-27T17:17:08.854Z,87.40
2018-06-27T17:19:37.533Z,88.30
2018-06-27T17:22:06.957Z,88.00
2018-06-27T17:24:35.645Z,88.30
2018-06-27T17:27:04.442Z,89.00
2018-06-27T17:29:39.240Z,90.00
2018-06-27T17:32:15.201Z,88.30
2018-06-27T17:34:43.949Z,88.60
2018-06-27T17:37:13.106Z,89.00
2018-06-27T17:39:42.886Z,90.10
2018-06-27T17:42:12.544Z,89.30
2018-06-27T17:44:41.671Z,89.30
2018-06-27T17:47:10.561Z,88.30
2018-06-27T17:49:39.233Z,87.90
2018-06-27T17:52:29.707Z,87.20
2018-06-27T17:57:50.965Z,84.60
2018-06-27T18:00:21.098Z,81.10
2018-06-27T18:05:52.657Z,80.40
2018-06-27T18:08:21.853Z,81.40
2018-06-27T18:10:50.615Z,81.40
2018-06-27T18:13:19.954Z,81.80
2018-06-27T18:18:40.574Z,82.80
2018-06-27T18:21:09.112Z,83.10
2018-06-27T18:23:40.480Z,83.00
2018-06-27T18:26:09.566Z,83.70
2018-06-27T18:28:38.378Z,84.10
2018-06-27T18:31:06.879Z,83.80
2018-06-27T18:33:40.298Z,84.30
2018-06-27T18:36:15.008Z,85.00
2018-06-27T18:38:43.572Z,85.10
2018-06-27T18:41:12.389Z,85.80
2018-06-27T18:43:40.809Z,85.10
2018-06-27T18:46:09.770Z,86.90
2018-06-27T18:48:38.330Z,85.90
2018-06-27T18:51:07.121Z,86.80
2018-06-27T18:53:35.680Z,87.10
2018-06-27T18:56:04.648Z,88.20
2018-06-27T18:58:33.760Z,88.50
2018-06-27T19:01:02.650Z,88.60
2018-06-27T19:03:31.397Z,88.90
2018-06-27T19:06:00.255Z,89.80
2018-06-27T19:08:29.286Z,89.60
2018-06-27T19:10:57.869Z,90.10
2018-06-27T19:13:26.615Z,90.40
2018-06-27T19:15:55.329Z,90.50
2018-06-27T19:18:24.081Z,90.70
2018-06-27T19:20:53.098Z,90.90
2018-06-27T19:23:22.538Z,91.10
2018-06-27T19:25:51.016Z,91.30
2018-06-27T19:28:19.942Z,92.00
2018-06-27T19:30:48.941Z,93.20
2018-06-27T19:33:17.566Z,91.80
2018-06-27T19:35:46.112Z,92.30
2018-06-27T19:38:15.145Z,92.70
2018-06-27T19:40:43.867Z,92.20
2018-06-27T19:43:12.822Z,92.50
2018-06-27T19:45:42.759Z,93.60
2018-06-27T19:48:11.657Z,93.20
2018-06-27T19:50:44.149Z,93.70
2018-06-27T19:53:12.954Z,93.60
2018-06-27T19:55:41.648Z,93.90
2018-06-27T19:58:11.574Z,93.70
2018-06-27T20:00:40.355Z,94.00
2018-06-27T20:03:09.201Z,94.60
2018-06-27T20:05:37.753Z,94.40
2018-06-27T20:08:06.465Z,94.80
2018-06-27T20:10:35.702Z,94.80
2018-06-27T20:13:06.520Z,94.90
2018-06-27T20:15:36.416Z,95.40
2018-06-27T20:18:05.377Z,95.50
2018-06-27T20:20:34.181Z,95.80
2018-06-27T20:23:02.786Z,95.70
2018-06-27T20:25:31.623Z,95.70
2018-06-27T20:28:00.440Z,95.70
2018-06-27T20:30:29.261Z,96.00
2018-06-27T20:32:57.777Z,96.30
2018-06-27T20:35:27.378Z,96.20
2018-06-27T20:37:56.701Z,96.40
2018-06-27T20:40:25.413Z,96.60
2018-06-27T20:42:53.898Z,96.80
2018-06-27T20:45:22.554Z,96.90
2018-06-27T20:50:37.366Z,97.40
2018-06-27T20:53:06.230Z,97.10
2018-06-27T20:55:35.022Z,97.50
2018-06-27T20:58:05.150Z,97.60
2018-06-27T21:00:33.842Z,97.40
2018-06-27T21:03:02.571Z,97.60
2018-06-27T21:05:31.343Z,97.60
2018-06-27T21:08:00.126Z,97.80
2018-06-27T21:10:28.942Z,97.80
2018-06-27T21:12:57.697Z,97.90
2018-06-27T21:15:26.672Z,97.90
2018-06-27T21:17:55.478Z,98.00
2018-06-27T21:20:24.263Z,98.10
2018-06-27T21:22:53.158Z,98.20
2018-06-27T21:25:22.304Z,98.20
2018-06-27T21:27:51.865Z,98.40
2018-06-27T21:30:20.679Z,98.60
2018-06-27T21:32:49.485Z,98.60
2018-06-27T21:35:18.219Z,98.80
2018-06-27T21:37:47.034Z,98.80
2018-06-27T21:40:15.790Z,98.80
2018-06-27T21:42:44.578Z,99.00
2018-06-27T21:45:13.891Z,99.80
2018-06-27T21:47:42.711Z,99.40
2018-06-27T21:50:11.526Z,99.40
2018-06-27T21:52:40.253Z,99.50
2018-06-27T21:55:08.950Z,99.70
2018-06-27T21:57:37.698Z,99.70
2018-06-27T22:00:08.215Z,99.90
2018-06-27T22:02:38.348Z,99.80
2018-06-27T22:05:07.262Z,99.90
2018-06-27T22:07:36.059Z,99.90
2018-06-27T22:10:04.798Z,99.90
2018-06-27T22:12:33.643Z,99.90
2018-06-27T22:15:03.268Z,99.90
2018-06-27T22:17:32.120Z,99.90
2018-06-27T22:20:00.920Z,99.90
2018-06-27T22:22:29.674Z,99.90
2018-06-27T22:24:58.370Z,99.90
2018-06-27T22:27:27.075Z,99.90
2018-06-27T22:29:55.920Z,99.90
2018-06-27T22:32:24.961Z,99.90
2018-06-27T22:34:53.721Z,99.90
2018-06-27T22:37:22.864Z,99.90
2018-06-27T22:39:51.669Z,99.90
2018-06-27T22:42:20.607Z,99.90
2018-06-27T22:44:49.322Z,99.90
2018-06-27T22:47:18.198Z,99.90
2018-06-27T22:49:47.262Z,99.90
2018-06-27T22:52:16.011Z,99.90
2018-06-27T22:54:44.823Z,99.90
2018-06-27T22:57:13.541Z,99.90
2018-06-27T22:59:42.929Z,99.90
2018-06-27T23:02:12.050Z,99.90
2018-06-27T23:04:41.278Z,99.90
2018-06-27T23:07:09.986Z,99.90
2018-06-27T23:09:38.781Z,99.90
2018-06-27T23:12:07.860Z,99.90
2018-06-27T23:14:36.602Z,99.90
2018-06-27T23:17:05.924Z,99.90
2018-06-27T23:19:34.662Z,99.90
2018-06-27T23:22:04.467Z,99.90
2018-06-27T23:24:33.563Z,99.90
2018-06-27T23:27:03.226Z,99.90
2018-06-27T23:29:31.983Z,99.90
2018-06-27T23:32:00.727Z,99.90
2018-06-27T23:34:29.399Z,99.90
2018-06-27T23:36:59.004Z,99.90
2018-06-27T23:39:27.725Z,99.90
2018-06-27T23:41:56.445Z,99.90
2018-06-27T23:44:25.214Z,99.90
2018-06-27T23:46:53.902Z,99.90
2018-06-27T23:49:23.368Z,99.90
2018-06-27T23:51:52.106Z,99.90
2018-06-27T23:54:20.810Z,99.90
2018-06-27T23:56:51.011Z,99.90
2018-06-27T23:59:19.784Z,99.90
